Jose Eduardo — EA-8620 — position and weather

sailwx.info

Track history (hours):
 
Tides and Currents Weather Stations Pressure Air Temp Water Temp Dewpoint Dewpoint Depression Visibility Wind Speed Wind Dir Waves Ship Positions

Jose Eduardo

Last reported at 2017-Nov-17 16:07 UTC. Time now 2017-Nov-19 12:36 UTC.
Position N 43°27' W 003°49'.

Length 15 m; draft 2 m.

MMSI: 224170740.

Date/timePositionNaut miles runAvg speedWind from/ knotsBaromVisibWave heightAir tempDewpointWater temp
2017-Nov-17 16:07N 43°27' W 003°49'0 2.9
2017-Nov-17 16:00N 43°27' W 003°49'2 3.8
2017-Nov-17 15:30N 43°28' W 003°46'4 5.0
2017-Nov-17 14:46N 43°31' W 003°44'2 7.7
2017-Nov-17 14:30N 43°33' W 003°43'2 0.2
2017-Nov-17 02:34N 43°34' W 003°41'0 7.0
2017-Nov-17 02:30N 43°34' W 003°41'6 7.4
2017-Nov-17 01:39N 43°28' W 003°45'1 7.1
2017-Nov-17 01:30N 43°28' W 003°46'2 0.1
2017-Nov-16 04:15N 43°27' W 003°49'2 6.7
2017-Nov-16 03:58N 43°28' W 003°46'4 7.2
2017-Nov-16 03:24N 43°31' W 003°43'3 7.8
2017-Nov-16 03:00N 43°34' W 003°41'4 7.7
2017-Nov-16 02:29N 43°37' W 003°38'1 1.0
2017-Nov-16 01:53N 43°38' W 003°37'0 0.4
2017-Nov-16 01:20N 43°38' W 003°38'0 0.6
2017-Nov-16 00:59N 43°38' W 003°38'0 0.7
2017-Nov-16 00:26N 43°38' W 003°39'0 0.7
2017-Nov-15 23:58N 43°38' W 003°39'1 0.7
2017-Nov-15 23:15N 43°38' W 003°40'0 0.4
2017-Nov-15 23:00N 43°38' W 003°40'1 0.1
2017-Nov-15 09:11N 43°38' W 003°41'0 0.3
2017-Nov-15 08:59N 43°38' W 003°41'1 1.1
2017-Nov-15 08:30N 43°38' W 003°40'1 1.1
2017-Nov-15 07:59N 43°38' W 003°40'0 0.9
2017-Nov-15 07:31N 43°38' W 003°39'0 1.0
2017-Nov-15 07:01N 43°38' W 003°38'1 1.0
2017-Nov-15 06:30N 43°38' W 003°38'2 0.4
2017-Nov-15 01:11N 43°39' W 003°40'0 1.1
2017-Nov-15 00:44N 43°39' W 003°40'1 1.2
2017-Nov-15 00:14N 43°39' W 003°39'0 1.1
2017-Nov-14 23:59N 43°39' W 003°39'1 1.1
2017-Nov-14 23:29N 43°39' W 003°38'1 1.0
2017-Nov-14 22:56N 43°38' W 003°37'0 0.9
2017-Nov-14 22:24N 43°38' W 003°37'0 0.9
2017-Nov-14 21:59N 43°38' W 003°36'1 0.8
2017-Nov-14 21:23N 43°38' W 003°35'0 0.9
2017-Nov-14 20:53N 43°38' W 003°35'0 0.8
2017-Nov-14 20:23N 43°38' W 003°34'0 0.8
2017-Nov-14 19:59N 43°38' W 003°34'3 1.7
2017-Nov-14 18:03N 43°39' W 003°38'2 0.2
2017-Nov-14 10:32N 43°38' W 003°40'0 1.1
2017-Nov-14 10:08N 43°38' W 003°41'0 1.1
2017-Nov-14 10:00N 43°38' W 003°41'1 1.8
2017-Nov-14 09:30N 43°37' W 003°40'0 0.7
2017-Nov-14 08:59N 43°37' W 003°40'0 0.7
2017-Nov-14 08:29N 43°37' W 003°39'0 0.6
2017-Nov-14 07:58N 43°37' W 003°39'0 0.5
2017-Nov-14 07:23N 43°37' W 003°39'0 0.3
2017-Nov-14 06:59N 43°37' W 003°38'0 0.3
2017-Nov-14 06:28N 43°37' W 003°38'0 0.6
2017-Nov-14 05:59N 43°37' W 003°38'0 0.5
2017-Nov-14 05:28N 43°38' W 003°38'2 4.2
2017-Nov-14 05:00N 43°38' W 003°40'2 3.3
2017-Nov-14 04:30N 43°39' W 003°39'  
2017-Nov-09 02:02N 43°39' W 005°47'1 7.3
2017-Nov-09 01:53N 43°39' W 005°46'4 7.4
2017-Nov-09 01:16N 43°36' W 005°41'2 6.8
2017-Nov-09 01:00N 43°34' W 005°40'1 0.1
2017-Nov-08 08:16N 43°33' W 005°41'1 0.0
2017-Nov-07 18:10N 43°33' W 005°42'0 0.2
2017-Nov-07 17:25N 43°33' W 005°42'  
Track history (hours):
 
Tides and Currents Weather Stations Pressure Air Temp Water Temp Dewpoint Dewpoint Depression Visibility Wind Speed Wind Dir Waves Ship Positions

Jose Eduardo

Last reported at 2017-Nov-17 16:07 UTC. Time now 2017-Nov-19 12:36 UTC.
Position N 43°27' W 003°49'.

Length 15 m; draft 2 m.

MMSI: 224170740.

Date/timePositionNaut miles runAvg speedWind from/ knotsBaromVisibWave heightAir tempDewpointWater temp
2017-Nov-17 16:07N 43°27' W 003°49'0 2.9
2017-Nov-17 16:00N 43°27' W 003°49'2 3.8
2017-Nov-17 15:30N 43°28' W 003°46'4 5.0
2017-Nov-17 14:46N 43°31' W 003°44'2 7.7
2017-Nov-17 14:30N 43°33' W 003°43'2 0.2
2017-Nov-17 02:34N 43°34' W 003°41'0 7.0
2017-Nov-17 02:30N 43°34' W 003°41'6 7.4
2017-Nov-17 01:39N 43°28' W 003°45'1 7.1
2017-Nov-17 01:30N 43°28' W 003°46'2 0.1
2017-Nov-16 04:15N 43°27' W 003°49'2 6.7
2017-Nov-16 03:58N 43°28' W 003°46'4 7.2
2017-Nov-16 03:24N 43°31' W 003°43'3 7.8
2017-Nov-16 03:00N 43°34' W 003°41'4 7.7
2017-Nov-16 02:29N 43°37' W 003°38'1 1.0
2017-Nov-16 01:53N 43°38' W 003°37'0 0.4
2017-Nov-16 01:20N 43°38' W 003°38'0 0.6
2017-Nov-16 00:59N 43°38' W 003°38'0 0.7
2017-Nov-16 00:26N 43°38' W 003°39'0 0.7
2017-Nov-15 23:58N 43°38' W 003°39'1 0.7
2017-Nov-15 23:15N 43°38' W 003°40'0 0.4
2017-Nov-15 23:00N 43°38' W 003°40'1 0.1
2017-Nov-15 09:11N 43°38' W 003°41'0 0.3
2017-Nov-15 08:59N 43°38' W 003°41'1 1.1
2017-Nov-15 08:30N 43°38' W 003°40'1 1.1
2017-Nov-15 07:59N 43°38' W 003°40'0 0.9
2017-Nov-15 07:31N 43°38' W 003°39'0 1.0
2017-Nov-15 07:01N 43°38' W 003°38'1 1.0
2017-Nov-15 06:30N 43°38' W 003°38'2 0.4
2017-Nov-15 01:11N 43°39' W 003°40'0 1.1
2017-Nov-15 00:44N 43°39' W 003°40'1 1.2
2017-Nov-15 00:14N 43°39' W 003°39'0 1.1
2017-Nov-14 23:59N 43°39' W 003°39'1 1.1
2017-Nov-14 23:29N 43°39' W 003°38'1 1.0
2017-Nov-14 22:56N 43°38' W 003°37'0 0.9
2017-Nov-14 22:24N 43°38' W 003°37'0 0.9
2017-Nov-14 21:59N 43°38' W 003°36'1 0.8
2017-Nov-14 21:23N 43°38' W 003°35'0 0.9
2017-Nov-14 20:53N 43°38' W 003°35'0 0.8
2017-Nov-14 20:23N 43°38' W 003°34'0 0.8
2017-Nov-14 19:59N 43°38' W 003°34'3 1.7
2017-Nov-14 18:03N 43°39' W 003°38'2 0.2
2017-Nov-14 10:32N 43°38' W 003°40'0 1.1
2017-Nov-14 10:08N 43°38' W 003°41'0 1.1
2017-Nov-14 10:00N 43°38' W 003°41'1 1.8
2017-Nov-14 09:30N 43°37' W 003°40'0 0.7
2017-Nov-14 08:59N 43°37' W 003°40'0 0.7
2017-Nov-14 08:29N 43°37' W 003°39'0 0.6
2017-Nov-14 07:58N 43°37' W 003°39'0 0.5
2017-Nov-14 07:23N 43°37' W 003°39'0 0.3
2017-Nov-14 06:59N 43°37' W 003°38'0 0.3
2017-Nov-14 06:28N 43°37' W 003°38'0 0.6
2017-Nov-14 05:59N 43°37' W 003°38'0 0.5
2017-Nov-14 05:28N 43°38' W 003°38'2 4.2
2017-Nov-14 05:00N 43°38' W 003°40'2 3.3
2017-Nov-14 04:30N 43°39' W 003°39'  
2017-Nov-09 02:02N 43°39' W 005°47'1 7.3
2017-Nov-09 01:53N 43°39' W 005°46'4 7.4
2017-Nov-09 01:16N 43°36' W 005°41'2 6.8
2017-Nov-09 01:00N 43°34' W 005°40'1 0.1
2017-Nov-08 08:16N 43°33' W 005°41'1 0.0
2017-Nov-07 18:10N 43°33' W 005°42'0 0.2
2017-Nov-07 17:25N 43°33' W 005°42'  

Dump ship's entire track history